sensor_id;sensor_type;location;lat;lon;timestamp;temperature;humidity
46055;DHT22;31788;6.954;-71.872;2022-10-16T00:01:28;27.00;99.90
46055;DHT22;31788;6.954;-71.872;2022-10-16T00:03:57;26.90;99.90
46055;DHT22;31788;6.954;-71.872;2022-10-16T00:06:24;27.00;99.90
46055;DHT22;31788;6.954;-71.872;2022-10-16T00:08:52;27.00;99.90
46055;DHT22;31788;6.954;-71.872;2022-10-16T00:11:27;26.90;99.90
46055;DHT22;31788;6.954;-71.872;2022-10-16T00:13:59;26.80;99.90
46055;DHT22;31788;6.954;-71.872;2022-10-16T00:16:27;26.80;99.90
46055;DHT22;31788;6.954;-71.872;2022-10-16T00:18:54;26.80;99.90
46055;DHT22;31788;6.954;-71.872;2022-10-16T00:21:24;26.80;99.90
46055;DHT22;31788;6.954;-71.872;2022-10-16T00:23:53;26.80;99.90
46055;DHT22;31788;6.954;-71.872;2022-10-16T00:29:42;26.70;99.90
46055;DHT22;31788;6.954;-71.872;2022-10-16T00:32:09;26.70;99.90
46055;DHT22;31788;6.954;-71.872;2022-10-16T00:34:35;26.60;99.90
46055;DHT22;31788;6.954;-71.872;2022-10-16T00:37:06;26.60;99.90
46055;DHT22;31788;6.954;-71.872;2022-10-16T00:39:32;26.60;99.90
46055;DHT22;31788;6.954;-71.872;2022-10-16T00:41:59;26.50;99.90
46055;DHT22;31788;6.954;-71.872;2022-10-16T00:44:49;26.50;99.90
46055;DHT22;31788;6.954;-71.872;2022-10-16T00:47:42;26.40;99.90
46055;DHT22;31788;6.954;-71.872;2022-10-16T00:50:50;26.40;99.90
46055;DHT22;31788;6.954;-71.872;2022-10-16T00:53:17;26.40;99.90
46055;DHT22;31788;6.954;-71.872;2022-10-16T00:58:51;26.40;99.90
46055;DHT22;31788;6.954;-71.872;2022-10-16T01:01:18;26.50;99.90
46055;DHT22;31788;6.954;-71.872;2022-10-16T01:04:06;26.40;99.90
46055;DHT22;31788;6.954;-71.872;2022-10-16T01:06:59;26.50;99.90
46055;DHT22;31788;6.954;-71.872;2022-10-16T01:12:11;26.60;99.90
46055;DHT22;31788;6.954;-71.872;2022-10-16T01:17:21;26.70;99.90
46055;DHT22;31788;6.954;-71.872;2022-10-16T01:28:11;26.60;99.90
46055;DHT22;31788;6.954;-71.872;2022-10-16T01:30:41;26.60;99.90
46055;DHT22;31788;6.954;-71.872;2022-10-16T01:33:21;26.50;99.90
46055;DHT22;31788;6.954;-71.872;2022-10-16T01:35:54;26.50;99.90
46055;DHT22;31788;6.954;-71.872;2022-10-16T01:38:38;26.50;99.90
46055;DHT22;31788;6.954;-71.872;2022-10-16T01:41:21;26.50;99.90
46055;DHT22;31788;6.954;-71.872;2022-10-16T01:43:58;26.40;99.90
46055;DHT22;31788;6.954;-71.872;2022-10-16T01:46:29;26.40;99.90
46055;DHT22;31788;6.954;-71.872;2022-10-16T01:48:57;26.40;99.90
46055;DHT22;31788;6.954;-71.872;2022-10-16T01:51:25;26.30;99.90
46055;DHT22;31788;6.954;-71.872;2022-10-16T01:53:55;26.40;99.90
46055;DHT22;31788;6.954;-71.872;2022-10-16T01:56:24;26.30;99.90
46055;DHT22;31788;6.954;-71.872;2022-10-16T01:59:06;26.30;99.90
46055;DHT22;31788;6.954;-71.872;2022-10-16T02:01:35;26.30;99.90
46055;DHT22;31788;6.954;-71.872;2022-10-16T02:06:47;26.20;99.90
46055;DHT22;31788;6.954;-71.872;2022-10-16T02:09:14;26.20;99.90
46055;DHT22;31788;6.954;-71.872;2022-10-16T02:11:43;26.10;99.90
46055;DHT22;31788;6.954;-71.872;2022-10-16T02:14:10;26.10;99.90
46055;DHT22;31788;6.954;-71.872;2022-10-16T02:16:42;26.00;99.90
46055;DHT22;31788;6.954;-71.872;2022-10-16T02:19:09;26.10;99.90
46055;DHT22;31788;6.954;-71.872;2022-10-16T02:24:33;26.10;99.90
46055;DHT22;31788;6.954;-71.872;2022-10-16T02:27:22;26.00;99.90
46055;DHT22;31788;6.954;-71.872;2022-10-16T02:29:59;26.00;99.90
46055;DHT22;31788;6.954;-71.872;2022-10-16T02:32:30;25.90;99.90
46055;DHT22;31788;6.954;-71.872;2022-10-16T02:35:02;25.90;99.90
46055;DHT22;31788;6.954;-71.872;2022-10-16T02:37:33;25.90;99.90
46055;DHT22;31788;6.954;-71.872;2022-10-16T02:40:00;25.90;99.90
46055;DHT22;31788;6.954;-71.872;2022-10-16T02:42:32;25.80;99.90
46055;DHT22;31788;6.954;-71.872;2022-10-16T02:44:59;25.80;99.90
46055;DHT22;31788;6.954;-71.872;2022-10-16T02:47:26;25.80;99.90
46055;DHT22;31788;6.954;-71.872;2022-10-16T02:49:53;25.70;99.90
46055;DHT22;31788;6.954;-71.872;2022-10-16T02:52:19;25.70;99.90
46055;DHT22;31788;6.954;-71.872;2022-10-16T02:54:46;25.70;99.90
46055;DHT22;31788;6.954;-71.872;2022-10-16T02:57:12;25.60;99.90
46055;DHT22;31788;6.954;-71.872;2022-10-16T02:59:39;25.60;99.90
46055;DHT22;31788;6.954;-71.872;2022-10-16T03:02:08;25.60;99.90
46055;DHT22;31788;6.954;-71.872;2022-10-16T03:04:35;25.60;99.90
46055;DHT22;31788;6.954;-71.872;2022-10-16T03:07:01;25.50;99.90
46055;DHT22;31788;6.954;-71.872;2022-10-16T03:09:28;25.50;99.90
46055;DHT22;31788;6.954;-71.872;2022-10-16T03:11:55;25.50;99.90
46055;DHT22;31788;6.954;-71.872;2022-10-16T03:14:21;25.50;99.90
46055;DHT22;31788;6.954;-71.872;2022-10-16T03:16:48;25.50;99.90
46055;DHT22;31788;6.954;-71.872;2022-10-16T03:19:16;25.50;99.90
46055;DHT22;31788;6.954;-71.872;2022-10-16T03:21:44;25.50;99.90
46055;DHT22;31788;6.954;-71.872;2022-10-16T03:24:11;25.50;99.90
46055;DHT22;31788;6.954;-71.872;2022-10-16T03:26:37;25.50;99.90
46055;DHT22;31788;6.954;-71.872;2022-10-16T03:29:04;25.50;99.90
46055;DHT22;31788;6.954;-71.872;2022-10-16T03:31:31;25.40;99.90
46055;DHT22;31788;6.954;-71.872;2022-10-16T03:33:57;25.40;99.90
46055;DHT22;31788;6.954;-71.872;2022-10-16T03:36:24;25.30;99.90
46055;DHT22;31788;6.954;-71.872;2022-10-16T03:38:50;25.40;99.90
46055;DHT22;31788;6.954;-71.872;2022-10-16T03:41:17;25.40;99.90
46055;DHT22;31788;6.954;-71.872;2022-10-16T03:43:44;25.30;99.90
46055;DHT22;31788;6.954;-71.872;2022-10-16T03:46:10;25.30;99.90
46055;DHT22;31788;6.954;-71.872;2022-10-16T03:48:37;25.30;99.90
46055;DHT22;31788;6.954;-71.872;2022-10-16T03:51:06;25.30;99.90
46055;DHT22;31788;6.954;-71.872;2022-10-16T03:53:32;25.30;99.90
46055;DHT22;31788;6.954;-71.872;2022-10-16T03:55:59;25.30;99.90
46055;DHT22;31788;6.954;-71.872;2022-10-16T03:58:26;25.30;99.90
46055;DHT22;31788;6.954;-71.872;2022-10-16T04:00:52;25.30;99.90
46055;DHT22;31788;6.954;-71.872;2022-10-16T04:03:20;25.30;99.90
46055;DHT22;31788;6.954;-71.872;2022-10-16T04:05:47;25.30;99.90
46055;DHT22;31788;6.954;-71.872;2022-10-16T04:08:13;25.30;99.90
46055;DHT22;31788;6.954;-71.872;2022-10-16T04:10:42;25.20;99.90
46055;DHT22;31788;6.954;-71.872;2022-10-16T04:13:10;25.20;99.90
46055;DHT22;31788;6.954;-71.872;2022-10-16T04:15:37;25.20;99.90
46055;DHT22;31788;6.954;-71.872;2022-10-16T04:18:04;25.10;99.90
46055;DHT22;31788;6.954;-71.872;2022-10-16T04:20:31;25.10;99.90
46055;DHT22;31788;6.954;-71.872;2022-10-16T04:22:57;25.20;99.90
46055;DHT22;31788;6.954;-71.872;2022-10-16T04:25:24;25.10;99.90
46055;DHT22;31788;6.954;-71.872;2022-10-16T04:27:53;25.10;99.90
46055;DHT22;31788;6.954;-71.872;2022-10-16T04:30:20;25.20;99.90
46055;DHT22;31788;6.954;-71.872;2022-10-16T04:32:51;25.20;99.90
46055;DHT22;31788;6.954;-71.872;2022-10-16T04:35:19;25.20;99.90
46055;DHT22;31788;6.954;-71.872;2022-10-16T04:37:45;25.30;99.90
46055;DHT22;31788;6.954;-71.872;2022-10-16T04:40:12;25.20;99.90
46055;DHT22;31788;6.954;-71.872;2022-10-16T04:42:39;25.20;99.90
46055;DHT22;31788;6.954;-71.872;2022-10-16T04:45:06;25.20;99.90
46055;DHT22;31788;6.954;-71.872;2022-10-16T04:47:34;25.20;99.90
46055;DHT22;31788;6.954;-71.872;2022-10-16T04:50:00;25.20;99.90
46055;DHT22;31788;6.954;-71.872;2022-10-16T04:52:28;25.10;99.90
46055;DHT22;31788;6.954;-71.872;2022-10-16T04:54:57;25.10;99.90
46055;DHT22;31788;6.954;-71.872;2022-10-16T04:57:27;25.10;99.90
46055;DHT22;31788;6.954;-71.872;2022-10-16T04:59:54;25.00;99.90
46055;DHT22;31788;6.954;-71.872;2022-10-16T05:02:21;25.00;99.90
46055;DHT22;31788;6.954;-71.872;2022-10-16T05:04:47;25.00;99.90
46055;DHT22;31788;6.954;-71.872;2022-10-16T05:07:14;25.00;99.90
46055;DHT22;31788;6.954;-71.872;2022-10-16T05:09:41;25.00;99.90
46055;DHT22;31788;6.954;-71.872;2022-10-16T05:12:07;25.10;99.90
46055;DHT22;31788;6.954;-71.872;2022-10-16T05:14:34;25.00;99.90
46055;DHT22;31788;6.954;-71.872;2022-10-16T05:17:01;25.00;99.90
46055;DHT22;31788;6.954;-71.872;2022-10-16T05:19:27;25.00;99.90
46055;DHT22;31788;6.954;-71.872;2022-10-16T05:21:54;24.90;99.90
46055;DHT22;31788;6.954;-71.872;2022-10-16T05:24:21;24.90;99.90
46055;DHT22;31788;6.954;-71.872;2022-10-16T05:26:47;24.90;99.90
46055;DHT22;31788;6.954;-71.872;2022-10-16T05:29:14;24.90;99.90
46055;DHT22;31788;6.954;-71.872;2022-10-16T05:31:41;24.90;99.90
46055;DHT22;31788;6.954;-71.872;2022-10-16T05:34:07;25.00;99.90
46055;DHT22;31788;6.954;-71.872;2022-10-16T05:36:34;25.00;99.90
46055;DHT22;31788;6.954;-71.872;2022-10-16T05:39:00;25.00;99.90
46055;DHT22;31788;6.954;-71.872;2022-10-16T05:41:27;25.10;99.90
46055;DHT22;31788;6.954;-71.872;2022-10-16T05:43:54;25.10;99.90
46055;DHT22;31788;6.954;-71.872;2022-10-16T05:46:20;25.10;99.90
46055;DHT22;31788;6.954;-71.872;2022-10-16T05:48:47;25.10;99.90
46055;DHT22;31788;6.954;-71.872;2022-10-16T05:51:14;25.00;99.90
46055;DHT22;31788;6.954;-71.872;2022-10-16T05:53:42;25.00;99.90
46055;DHT22;31788;6.954;-71.872;2022-10-16T05:56:10;25.10;99.90
46055;DHT22;31788;6.954;-71.872;2022-10-16T05:58:39;25.00;99.90
46055;DHT22;31788;6.954;-71.872;2022-10-16T06:01:18;25.00;99.90
46055;DHT22;31788;6.954;-71.872;2022-10-16T06:03:45;25.10;99.90
46055;DHT22;31788;6.954;-71.872;2022-10-16T06:06:16;25.10;99.90
46055;DHT22;31788;6.954;-71.872;2022-10-16T06:08:45;25.10;99.90
46055;DHT22;31788;6.954;-71.872;2022-10-16T06:11:15;25.00;99.90
46055;DHT22;31788;6.954;-71.872;2022-10-16T06:13:42;25.00;99.90
46055;DHT22;31788;6.954;-71.872;2022-10-16T06:16:10;25.00;99.90
46055;DHT22;31788;6.954;-71.872;2022-10-16T06:18:37;25.10;99.90
46055;DHT22;31788;6.954;-71.872;2022-10-16T06:21:12;25.10;99.90
46055;DHT22;31788;6.954;-71.872;2022-10-16T06:23:40;25.10;99.90
46055;DHT22;31788;6.954;-71.872;2022-10-16T06:26:11;25.10;99.90
46055;DHT22;31788;6.954;-71.872;2022-10-16T06:28:39;25.10;99.90
46055;DHT22;31788;6.954;-71.872;2022-10-16T06:31:07;25.20;99.90
46055;DHT22;31788;6.954;-71.872;2022-10-16T06:33:35;25.20;99.90
46055;DHT22;31788;6.954;-71.872;2022-10-16T06:36:06;25.20;99.90
46055;DHT22;31788;6.954;-71.872;2022-10-16T06:38:34;25.20;99.90
46055;DHT22;31788;6.954;-71.872;2022-10-16T06:41:01;25.30;99.90
46055;DHT22;31788;6.954;-71.872;2022-10-16T06:43:29;25.30;99.90
46055;DHT22;31788;6.954;-71.872;2022-10-16T06:46:00;25.30;99.90
46055;DHT22;31788;6.954;-71.872;2022-10-16T06:48:28;25.20;99.90
46055;DHT22;31788;6.954;-71.872;2022-10-16T06:51:13;25.20;99.90
46055;DHT22;31788;6.954;-71.872;2022-10-16T06:53:48;25.10;99.90
46055;DHT22;31788;6.954;-71.872;2022-10-16T06:56:23;25.20;99.90
46055;DHT22;31788;6.954;-71.872;2022-10-16T06:58:50;25.20;99.90
46055;DHT22;31788;6.954;-71.872;2022-10-16T07:01:19;25.20;99.90
46055;DHT22;31788;6.954;-71.872;2022-10-16T07:03:46;25.30;99.90
46055;DHT22;31788;6.954;-71.872;2022-10-16T07:06:17;25.20;99.90
46055;DHT22;31788;6.954;-71.872;2022-10-16T07:08:45;25.10;99.90
46055;DHT22;31788;6.954;-71.872;2022-10-16T07:11:14;25.10;99.90
46055;DHT22;31788;6.954;-71.872;2022-10-16T07:13:42;25.00;99.90
46055;DHT22;31788;6.954;-71.872;2022-10-16T07:16:11;25.00;99.90
46055;DHT22;31788;6.954;-71.872;2022-10-16T07:18:38;24.90;99.90
46055;DHT22;31788;6.954;-71.872;2022-10-16T07:21:07;24.90;99.90
46055;DHT22;31788;6.954;-71.872;2022-10-16T07:23:34;25.00;99.90
46055;DHT22;31788;6.954;-71.872;2022-10-16T07:26:01;25.10;99.90
46055;DHT22;31788;6.954;-71.872;2022-10-16T07:28:28;25.10;99.90
46055;DHT22;31788;6.954;-71.872;2022-10-16T07:30:55;25.10;99.90
46055;DHT22;31788;6.954;-71.872;2022-10-16T07:33:22;25.10;99.90
46055;DHT22;31788;6.954;-71.872;2022-10-16T07:35:52;25.00;99.90
46055;DHT22;31788;6.954;-71.872;2022-10-16T07:38:20;25.00;99.90
46055;DHT22;31788;6.954;-71.872;2022-10-16T07:40:47;25.00;99.90
46055;DHT22;31788;6.954;-71.872;2022-10-16T07:43:14;24.90;99.90
46055;DHT22;31788;6.954;-71.872;2022-10-16T07:45:50;24.90;99.90
46055;DHT22;31788;6.954;-71.872;2022-10-16T07:48:17;24.80;99.90
46055;DHT22;31788;6.954;-71.872;2022-10-16T07:50:45;24.80;99.90
46055;DHT22;31788;6.954;-71.872;2022-10-16T07:53:12;24.70;99.90
46055;DHT22;31788;6.954;-71.872;2022-10-16T07:55:38;24.60;99.90
46055;DHT22;31788;6.954;-71.872;2022-10-16T07:58:05;24.60;99.90
46055;DHT22;31788;6.954;-71.872;2022-10-16T08:00:32;24.60;99.90
46055;DHT22;31788;6.954;-71.872;2022-10-16T08:02:59;24.60;99.90
46055;DHT22;31788;6.954;-71.872;2022-10-16T08:05:27;24.50;99.90
46055;DHT22;31788;6.954;-71.872;2022-10-16T08:07:54;24.50;99.90
46055;DHT22;31788;6.954;-71.872;2022-10-16T08:10:24;24.40;99.90
46055;DHT22;31788;6.954;-71.872;2022-10-16T08:12:51;24.40;99.90
46055;DHT22;31788;6.954;-71.872;2022-10-16T08:15:18;24.40;99.90
46055;DHT22;31788;6.954;-71.872;2022-10-16T08:17:54;24.40;99.90
46055;DHT22;31788;6.954;-71.872;2022-10-16T08:20:20;24.40;99.90
46055;DHT22;31788;6.954;-71.872;2022-10-16T08:22:47;24.30;99.90
46055;DHT22;31788;6.954;-71.872;2022-10-16T08:25:13;24.30;99.90
46055;DHT22;31788;6.954;-71.872;2022-10-16T08:27:40;24.40;99.90
46055;DHT22;31788;6.954;-71.872;2022-10-16T08:30:07;24.40;99.90
46055;DHT22;31788;6.954;-71.872;2022-10-16T08:32:34;24.40;99.90
46055;DHT22;31788;6.954;-71.872;2022-10-16T08:35:00;24.40;99.90
46055;DHT22;31788;6.954;-71.872;2022-10-16T08:40:49;24.30;99.90
46055;DHT22;31788;6.954;-71.872;2022-10-16T08:48:50;24.30;99.90
46055;DHT22;31788;6.954;-71.872;2022-10-16T08:51:22;24.30;99.90
46055;DHT22;31788;6.954;-71.872;2022-10-16T08:54:03;24.30;99.90
46055;DHT22;31788;6.954;-71.872;2022-10-16T08:56:31;24.30;99.90
46055;DHT22;31788;6.954;-71.872;2022-10-16T08:58:59;24.20;99.90
46055;DHT22;31788;6.954;-71.872;2022-10-16T09:01:44;24.20;99.90
46055;DHT22;31788;6.954;-71.872;2022-10-16T09:18:15;24.20;99.90
46055;DHT22;31788;6.954;-71.872;2022-10-16T09:20:53;24.10;99.90
46055;DHT22;31788;6.954;-71.872;2022-10-16T09:23:27;24.10;99.90
46055;DHT22;31788;6.954;-71.872;2022-10-16T09:25:55;24.00;99.90
46055;DHT22;31788;6.954;-71.872;2022-10-16T09:28:22;24.00;99.90
46055;DHT22;31788;6.954;-71.872;2022-10-16T09:30:49;23.90;99.90
46055;DHT22;31788;6.954;-71.872;2022-10-16T09:33:35;23.90;99.90
46055;DHT22;31788;6.954;-71.872;2022-10-16T09:36:04;23.90;99.90
46055;DHT22;31788;6.954;-71.872;2022-10-16T09:38:35;24.00;99.90
46055;DHT22;31788;6.954;-71.872;2022-10-16T09:43:47;24.10;99.90
46055;DHT22;31788;6.954;-71.872;2022-10-16T09:46:35;24.10;99.90
46055;DHT22;31788;6.954;-71.872;2022-10-16T09:49:25;24.10;99.90
46055;DHT22;31788;6.954;-71.872;2022-10-16T09:52:13;24.00;99.90
46055;DHT22;31788;6.954;-71.872;2022-10-16T09:55:01;24.00;99.90
46055;DHT22;31788;6.954;-71.872;2022-10-16T09:57:29;24.00;99.90
46055;DHT22;31788;6.954;-71.872;2022-10-16T09:59:59;24.00;99.90
46055;DHT22;31788;6.954;-71.872;2022-10-16T10:02:35;24.00;99.90
46055;DHT22;31788;6.954;-71.872;2022-10-16T10:05:02;24.00;99.90
46055;DHT22;31788;6.954;-71.872;2022-10-16T10:07:42;23.90;99.90
46055;DHT22;31788;6.954;-71.872;2022-10-16T10:10:28;23.90;99.90
46055;DHT22;31788;6.954;-71.872;2022-10-16T10:12:56;24.00;99.90
46055;DHT22;31788;6.954;-71.872;2022-10-16T10:15:23;24.00;99.90
46055;DHT22;31788;6.954;-71.872;2022-10-16T10:17:59;24.00;99.90
46055;DHT22;31788;6.954;-71.872;2022-10-16T10:20:34;23.90;99.90
46055;DHT22;31788;6.954;-71.872;2022-10-16T10:23:13;23.80;99.90
46055;DHT22;31788;6.954;-71.872;2022-10-16T10:31:34;23.80;99.90
46055;DHT22;31788;6.954;-71.872;2022-10-16T10:36:59;23.80;99.90
46055;DHT22;31788;6.954;-71.872;2022-10-16T10:39:38;23.80;99.90
46055;DHT22;31788;6.954;-71.872;2022-10-16T10:45:16;23.90;99.90
46055;DHT22;31788;6.954;-71.872;2022-10-16T10:54:02;23.90;99.90
46055;DHT22;31788;6.954;-71.872;2022-10-16T10:56:50;24.00;99.90
46055;DHT22;31788;6.954;-71.872;2022-10-16T11:02:05;24.30;99.90
46055;DHT22;31788;6.954;-71.872;2022-10-16T11:04:58;24.30;99.90
46055;DHT22;31788;6.954;-71.872;2022-10-16T11:07:37;24.30;99.90
46055;DHT22;31788;6.954;-71.872;2022-10-16T11:10:20;24.40;99.90
46055;DHT22;31788;6.954;-71.872;2022-10-16T11:12:52;24.40;99.90
46055;DHT22;31788;6.954;-71.872;2022-10-16T11:15:34;24.40;99.90
46055;DHT22;31788;6.954;-71.872;2022-10-16T11:18:44;24.40;99.90
46055;DHT22;31788;6.954;-71.872;2022-10-16T11:21:10;24.40;99.90
46055;DHT22;31788;6.954;-71.872;2022-10-16T11:24:06;24.40;99.90
46055;DHT22;31788;6.954;-71.872;2022-10-16T11:26:41;24.50;99.90
46055;DHT22;31788;6.954;-71.872;2022-10-16T11:29:16;24.60;99.90
46055;DHT22;31788;6.954;-71.872;2022-10-16T11:31:49;24.70;99.90
46055;DHT22;31788;6.954;-71.872;2022-10-16T11:39:30;24.90;99.90
46055;DHT22;31788;6.954;-71.872;2022-10-16T11:42:30;24.90;99.90
46055;DHT22;31788;6.954;-71.872;2022-10-16T11:47:54;25.00;99.90
46055;DHT22;31788;6.954;-71.872;2022-10-16T11:50:38;25.00;99.90
46055;DHT22;31788;6.954;-71.872;2022-10-16T11:56:00;25.20;99.90
46055;DHT22;31788;6.954;-71.872;2022-10-16T12:03:55;25.70;99.90
46055;DHT22;31788;6.954;-71.872;2022-10-16T23:11:50;26.20;99.90
46055;DHT22;31788;6.954;-71.872;2022-10-16T23:14:21;26.30;99.90
46055;DHT22;31788;6.954;-71.872;2022-10-16T23:16:48;26.40;99.90
46055;DHT22;31788;6.954;-71.872;2022-10-16T23:19:15;26.40;99.90
46055;DHT22;31788;6.954;-71.872;2022-10-16T23:21:42;26.50;99.90
46055;DHT22;31788;6.954;-71.872;2022-10-16T23:24:09;26.50;99.90
46055;DHT22;31788;6.954;-71.872;2022-10-16T23:26:35;26.50;99.90
46055;DHT22;31788;6.954;-71.872;2022-10-16T23:29:02;26.50;99.90
46055;DHT22;31788;6.954;-71.872;2022-10-16T23:31:29;26.50;99.90
46055;DHT22;31788;6.954;-71.872;2022-10-16T23:33:56;26.50;99.90
46055;DHT22;31788;6.954;-71.872;2022-10-16T23:36:23;26.50;99.90
46055;DHT22;31788;6.954;-71.872;2022-10-16T23:38:50;26.50;99.90
46055;DHT22;31788;6.954;-71.872;2022-10-16T23:41:18;26.60;99.90
46055;DHT22;31788;6.954;-71.872;2022-10-16T23:43:46;26.60;99.90
46055;DHT22;31788;6.954;-71.872;2022-10-16T23:46:13;26.60;99.90
46055;DHT22;31788;6.954;-71.872;2022-10-16T23:48:40;26.60;99.90
46055;DHT22;31788;6.954;-71.872;2022-10-16T23:51:08;26.60;99.90
46055;DHT22;31788;6.954;-71.872;2022-10-16T23:53:35;26.60;99.90
46055;DHT22;31788;6.954;-71.872;2022-10-16T23:56:01;26.50;99.90
46055;DHT22;31788;6.954;-71.872;2022-10-16T23:58:28;26.50;99.90
